Time;durP1;ratioP1;P1;durP2;ratioP2;P2;SDS_P1;SDS_P2;PMS_P1;PMS_P2;Temp;Humidity;BMP_temperature;BMP_pressure;BME280_temperature;BME280_humidity;BME280_pressure;Samples;Min_cycle;Max_cycle;Signal;HPM_P1;HPM_P2
2021/07/30 00:01:32;;;;;;;;;;;;;;;;;;3592287;40;912;-56
2021/07/30 00:03:57;;;;;;;;;;;;;;;;;;3591419;40;876;-55
2021/07/30 00:06:22;;;;;;;;;;;;;;;;;;3591302;40;931;-56
2021/07/30 00:08:47;;;;;;;;;;;;;;;;;;3591395;40;1198;-55
2021/07/30 00:11:12;;;;;;;;;;;;;;;;;;3591280;40;944;-56
2021/07/30 00:13:38;;;;;;;;;;;;;;;;;;3591553;40;685;-55
2021/07/30 00:16:03;;;;;;;;;;;;;;;;;;3591299;40;747;-56
2021/07/30 00:18:28;;;;;;;;;;;;;;;;;;3591451;40;1867;-55
2021/07/30 00:20:53;;;;;;;;;;;;;;;;;;3591523;40;820;-56
2021/07/30 00:23:18;;;;;;;;;;;;;;;;;;3591120;40;1342;-57
2021/07/30 00:25:43;;;;;;;;;;;;;;;;;;3591488;40;622;-56
2021/07/30 00:28:08;;;;;;;;;;;;;;;;;;3592299;40;849;-56
2021/07/30 00:30:33;;;;;;;;;;;;;;;;;;3591401;40;743;-58
2021/07/30 00:32:59;;;;;;;;;;;;;;;;;;3591699;40;809;-55
2021/07/30 00:35:24;;;;;;;;;;;;;;;;;;3591334;40;733;-55
2021/07/30 00:37:49;;;;;;;;;;;;;;;;;;3591579;40;854;-55
2021/07/30 00:40:14;;;;;;;;;;;;;;;;;;3591489;40;1877;-55
2021/07/30 00:42:39;;;;;;;;;;;;;;;;;;3591811;40;752;-55
2021/07/30 00:45:04;;;;;;;;;;;;;;;;;;3591451;40;741;-55
2021/07/30 00:47:29;;;;;;;;;;;;;;;;;;3591349;40;711;-55
2021/07/30 00:49:54;;;;;;;;;;;;;;;;;;3591444;40;777;-55
2021/07/30 00:52:20;;;;;;;;;;;;;;;;;;3591280;40;829;-55
2021/07/30 00:54:45;;;;;;;;;;;;;;;;;;3591198;40;808;-55
2021/07/30 00:57:10;;;;;;;;;;;;;;;;;;3591148;40;1450;-55
2021/07/30 00:59:35;;;;;;;;;;;;;;;;;;3590967;40;1873;-54
2021/07/30 01:02:00;;;;;;;;;;;;;;;;;;3591192;40;833;-55
2021/07/30 01:04:25;;;;;;;;;;;;;;;;;;3591352;40;841;-55
2021/07/30 01:06:50;;;;;;;;;;;;;;;;;;3591527;40;736;-55
2021/07/30 01:09:15;;;;;;;;;;;;;;;;;;3592441;40;749;-55
2021/07/30 01:11:44;;;;;;;;;;;;;;;;;;3592731;40;840;-55
2021/07/30 01:14:09;;;;;;;;;;;;;;;;;;3592650;40;698;-55
2021/07/30 01:16:34;;;;;;;;;;;;;;;;;;3592957;40;825;-56
2021/07/30 01:19:00;;;;;;;;;;;;;;;;;;3592615;40;1875;-56
2021/07/30 01:21:26;;;;;;;;;;;;;;;;;;3593273;40;1037;-55
2021/07/30 01:23:52;;;;;;;;;;;;;;;;;;3592543;40;754;-55
2021/07/30 01:26:17;;;;;;;;;;;;;;;;;;3593019;40;786;-54
2021/07/30 01:28:42;;;;;;;;;;;;;;;;;;3592315;40;855;-55
2021/07/30 01:31:07;;;;;;;;;;;;;;;;;;3592531;40;822;-55
2021/07/30 01:33:32;;;;;;;;;;;;;;;;;;3592508;40;817;-55
2021/07/30 01:35:57;;;;;;;;;;;;;;;;;;3592281;40;994;-55
2021/07/30 01:38:22;;;;;;;;;;;;;;;;;;3592815;40;1855;-55
2021/07/30 01:40:47;;;;;;;;;;;;;;;;;;3592614;40;763;-55
2021/07/30 01:43:13;;;;;;;;;;;;;;;;;;3592468;40;716;-55
2021/07/30 01:45:38;;;;;;;;;;;;;;;;;;3592276;40;809;-55
2021/07/30 01:48:03;;;;;;;;;;;;;;;;;;3592629;40;834;-55
2021/07/30 01:50:28;;;;;;;;;;;;;;;;;;3592419;40;756;-54
2021/07/30 01:52:53;;;;;;;;;;;;;;;;;;3592611;40;775;-55
2021/07/30 01:55:18;;;;;;;;;;;;;;;;;;3592365;40;743;-54
2021/07/30 01:57:43;;;;;;;;;;;;;;;;;;3592490;40;809;-55
2021/07/30 02:00:08;;;;;;;;;;;;;;;;;;3592456;40;1942;-55
2021/07/30 02:02:34;;;;;;;;;;;;;;;;;;3592275;40;813;-55
2021/07/30 02:04:59;;;;;;;;;;;;;;;;;;3592502;40;765;-55
2021/07/30 02:07:24;;;;;;;;;;;;;;;;;;3592459;40;805;-55
2021/07/30 02:09:49;;;;;;;;;;;;;;;;;;3592640;40;755;-55
2021/07/30 02:12:14;;;;;;;;;;;;;;;;;;3592438;40;840;-57
2021/07/30 02:14:40;;;;;;;;;;;;;;;;;;3592724;40;989;-54
2021/07/30 02:17:05;;;;;;;;;;;;;;;;;;3592332;40;828;-55
2021/07/30 02:19:30;;;;;;;;;;;;;;;;;;3592035;40;2029;-55
2021/07/30 02:21:55;;;;;;;;;;;;;;;;;;3592090;40;1310;-55
2021/07/30 02:24:21;;;;;;;;;;;;;;;;;;3592155;40;782;-55
2021/07/30 02:26:46;;;;;;;;;;;;;;;;;;3592536;40;739;-55
2021/07/30 02:29:11;;;;;;;;;;;;;;;;;;3592148;40;720;-55
2021/07/30 02:31:36;;;;;;;;;;;;;;;;;;3592196;40;728;-55
2021/07/30 02:34:01;;;;;;;;;;;;;;;;;;3592104;40;821;-55
2021/07/30 02:36:26;;;;;;;;;;;;;;;;;;3591875;40;839;-55
2021/07/30 02:38:51;;;;;;;;;;;;;;;;;;3592223;40;1867;-55
2021/07/30 02:41:17;;;;;;;;;;;;;;;;;;3592262;40;811;-55
2021/07/30 02:43:42;;;;;;;;;;;;;;;;;;3592325;40;759;-55
2021/07/30 02:46:07;;;;;;;;;;;;;;;;;;3592211;40;809;-55
2021/07/30 02:48:32;;;;;;;;;;;;;;;;;;3592393;40;787;-55
2021/07/30 02:50:57;;;;;;;;;;;;;;;;;;3592257;40;704;-55
2021/07/30 02:53:22;;;;;;;;;;;;;;;;;;3592257;40;724;-55
2021/07/30 02:55:47;;;;;;;;;;;;;;;;;;3592213;40;821;-55
2021/07/30 02:58:12;;;;;;;;;;;;;;;;;;3591993;40;1879;-55
2021/07/30 03:00:38;;;;;;;;;;;;;;;;;;3592218;40;799;-55
2021/07/30 03:03:03;;;;;;;;;;;;;;;;;;3592185;40;696;-55
2021/07/30 03:05:28;;;;;;;;;;;;;;;;;;3592507;40;901;-56
2021/07/30 03:07:53;;;;;;;;;;;;;;;;;;3591978;40;720;-55
2021/07/30 03:10:18;;;;;;;;;;;;;;;;;;3592497;40;745;-55
2021/07/30 03:12:43;;;;;;;;;;;;;;;;;;3592071;40;720;-55
2021/07/30 03:15:08;;;;;;;;;;;;;;;;;;3592073;40;774;-55
2021/07/30 03:17:33;;;;;;;;;;;;;;;;;;3591870;40;861;-55
2021/07/30 03:19:59;;;;;;;;;;;;;;;;;;3592011;40;1948;-55
2021/07/30 03:22:24;;;;;;;;;;;;;;;;;;3591993;40;1109;-55
2021/07/30 03:24:49;;;;;;;;;;;;;;;;;;3591796;40;976;-56
2021/07/30 03:27:14;;;;;;;;;;;;;;;;;;3592181;40;778;-55
2021/07/30 03:29:39;;;;;;;;;;;;;;;;;;3591648;40;796;-55
2021/07/30 03:32:04;;;;;;;;;;;;;;;;;;3591607;40;718;-56
2021/07/30 03:34:32;;;;;;;;;;;;;;;;;;3592648;40;821;-55
2021/07/30 03:36:58;;;;;;;;;;;;;;;;;;3592385;40;1114;-56
2021/07/30 03:39:23;;;;;;;;;;;;;;;;;;3591838;40;1874;-55
2021/07/30 03:41:48;;;;;;;;;;;;;;;;;;3591909;40;757;-56
2021/07/30 03:44:13;;;;;;;;;;;;;;;;;;3591951;40;845;-55
2021/07/30 03:46:38;;;;;;;;;;;;;;;;;;3592323;40;752;-56
2021/07/30 03:49:03;;;;;;;;;;;;;;;;;;3591681;40;744;-56
2021/07/30 03:51:28;;;;;;;;;;;;;;;;;;3591831;40;832;-55
2021/07/30 03:53:53;;;;;;;;;;;;;;;;;;3591811;40;824;-57
2021/07/30 03:56:19;;;;;;;;;;;;;;;;;;3592244;40;733;-55
2021/07/30 03:58:44;;;;;;;;;;;;;;;;;;3591766;40;1922;-55
2021/07/30 04:01:09;;;;;;;;;;;;;;;;;;3591744;40;752;-55
2021/07/30 04:03:34;;;;;;;;;;;;;;;;;;3591613;40;713;-55
2021/07/30 04:05:59;;;;;;;;;;;;;;;;;;3591533;40;714;-55
2021/07/30 04:08:24;;;;;;;;;;;;;;;;;;3591626;40;866;-56
2021/07/30 04:10:49;;;;;;;;;;;;;;;;;;3591551;40;824;-55
2021/07/30 04:13:14;;;;;;;;;;;;;;;;;;3591291;40;856;-55
2021/07/30 04:15:40;;;;;;;;;;;;;;;;;;3591561;40;1002;-55
2021/07/30 04:18:05;;;;;;;;;;;;;;;;;;3591376;40;1874;-55
2021/07/30 04:20:30;;;;;;;;;;;;;;;;;;3591450;40;760;-55
2021/07/30 04:22:55;;;;;;;;;;;;;;;;;;3591402;40;1251;-55
2021/07/30 04:25:20;;;;;;;;;;;;;;;;;;3591289;40;1440;-55
2021/07/30 04:27:45;;;;;;;;;;;;;;;;;;3592086;40;896;-55
2021/07/30 04:30:10;;;;;;;;;;;;;;;;;;3591684;40;840;-55
2021/07/30 04:32:35;;;;;;;;;;;;;;;;;;3591360;40;844;-55
2021/07/30 04:35:01;;;;;;;;;;;;;;;;;;3591638;40;832;-55
2021/07/30 04:37:26;;;;;;;;;;;;;;;;;;3591569;40;844;-55
2021/07/30 04:39:51;;;;;;;;;;;;;;;;;;3591297;40;1929;-55
2021/07/30 04:42:16;;;;;;;;;;;;;;;;;;3591088;40;840;-54
2021/07/30 04:44:41;;;;;;;;;;;;;;;;;;3591509;40;846;-55
2021/07/30 04:47:06;;;;;;;;;;;;;;;;;;3591569;40;883;-55
2021/07/30 04:49:31;;;;;;;;;;;;;;;;;;3591676;40;779;-55
2021/07/30 04:51:56;;;;;;;;;;;;;;;;;;3591507;40;795;-55
2021/07/30 04:54:22;;;;;;;;;;;;;;;;;;3591533;40;920;-55
2021/07/30 04:56:47;;;;;;;;;;;;;;;;;;3591032;40;799;-55
2021/07/30 04:59:12;;;;;;;;;;;;;;;;;;3591105;40;1875;-55
2021/07/30 05:01:41;;;;;;;;;;;;;;;;;;3591286;40;829;-55
2021/07/30 05:04:07;;;;;;;;;;;;;;;;;;3591551;40;837;-55
2021/07/30 05:06:32;;;;;;;;;;;;;;;;;;3591526;40;771;-55
2021/07/30 05:08:57;;;;;;;;;;;;;;;;;;3591075;40;724;-55
2021/07/30 05:11:23;;;;;;;;;;;;;;;;;;3591552;40;783;-55
2021/07/30 05:13:48;;;;;;;;;;;;;;;;;;3591485;40;831;-55
2021/07/30 05:16:16;;;;;;;;;;;;;;;;;;3591088;40;786;-55
2021/07/30 05:18:41;;;;;;;;;;;;;;;;;;3591398;40;1867;-55
2021/07/30 05:21:06;;;;;;;;;;;;;;;;;;3591343;40;833;-57
2021/07/30 05:23:32;;;;;;;;;;;;;;;;;;3590884;40;1054;-54
2021/07/30 05:25:57;;;;;;;;;;;;;;;;;;3591216;40;786;-56
2021/07/30 05:28:22;;;;;;;;;;;;;;;;;;3590991;40;732;-56
2021/07/30 05:30:47;;;;;;;;;;;;;;;;;;3591006;40;863;-56
2021/07/30 05:33:12;;;;;;;;;;;;;;;;;;3591355;40;728;-55
2021/07/30 05:35:37;;;;;;;;;;;;;;;;;;3590758;40;862;-56
2021/07/30 05:38:03;;;;;;;;;;;;;;;;;;3590921;40;1859;-56
2021/07/30 05:40:28;;;;;;;;;;;;;;;;;;3590940;40;744;-56
2021/07/30 05:42:53;;;;;;;;;;;;;;;;;;3590667;40;732;-55
2021/07/30 05:45:18;;;;;;;;;;;;;;;;;;3590917;40;720;-54
2021/07/30 05:47:43;;;;;;;;;;;;;;;;;;3590575;40;661;-55
2021/07/30 05:50:08;;;;;;;;;;;;;;;;;;3591672;40;949;-55
2021/07/30 05:52:34;;;;;;;;;;;;;;;;;;3591067;40;715;-55
2021/07/30 05:54:59;;;;;;;;;;;;;;;;;;3592580;40;761;-55
2021/07/30 05:57:24;;;;;;;;;;;;;;;;;;3592351;40;709;-55
2021/07/30 05:59:50;;;;;;;;;;;;;;;;;;3592541;40;1861;-55
2021/07/30 06:02:15;;;;;;;;;;;;;;;;;;3592867;40;740;-55
2021/07/30 06:04:40;;;;;;;;;;;;;;;;;;3592573;40;821;-55
2021/07/30 06:07:05;;;;;;;;;;;;;;;;;;3592312;40;848;-55
2021/07/30 06:09:30;;;;;;;;;;;;;;;;;;3592449;40;863;-55
2021/07/30 06:11:55;;;;;;;;;;;;;;;;;;3592514;40;775;-55
2021/07/30 06:14:20;;;;;;;;;;;;;;;;;;3592403;40;739;-55
2021/07/30 06:16:45;;;;;;;;;;;;;;;;;;3592561;40;882;-56
2021/07/30 06:19:11;;;;;;;;;;;;;;;;;;3592261;40;1863;-55
2021/07/30 06:21:36;;;;;;;;;;;;;;;;;;3592358;40;1125;-56
2021/07/30 06:24:01;;;;;;;;;;;;;;;;;;3592117;40;708;-55
2021/07/30 06:26:26;;;;;;;;;;;;;;;;;;3592632;40;782;-54
2021/07/30 06:28:51;;;;;;;;;;;;;;;;;;3592347;40;811;-55
2021/07/30 06:31:16;;;;;;;;;;;;;;;;;;3592111;40;914;-55
2021/07/30 06:33:41;;;;;;;;;;;;;;;;;;3592333;40;872;-55
2021/07/30 06:36:07;;;;;;;;;;;;;;;;;;3592176;40;733;-55
2021/07/30 06:38:32;;;;;;;;;;;;;;;;;;3591800;40;1919;-55
2021/07/30 06:40:57;;;;;;;;;;;;;;;;;;3583028;40;1387;-55
2021/07/30 06:43:23;;;;;;;;;;;;;;;;;;3592218;40;899;-55
2021/07/30 06:45:48;;;;;;;;;;;;;;;;;;3592319;40;720;-55
2021/07/30 06:48:13;;;;;;;;;;;;;;;;;;3583064;40;749;-55
2021/07/30 06:50:38;;;;;;;;;;;;;;;;;;3592229;40;810;-55
2021/07/30 06:53:03;;;;;;;;;;;;;;;;;;3592255;40;918;-55
2021/07/30 06:55:28;;;;;;;;;;;;;;;;;;3592150;40;722;-55
2021/07/30 06:57:53;;;;;;;;;;;;;;;;;;3592228;40;748;-55
2021/07/30 07:00:19;;;;;;;;;;;;;;;;;;3591907;40;1867;-55
2021/07/30 07:02:44;;;;;;;;;;;;;;;;;;3592189;40;889;-55
2021/07/30 07:05:09;;;;;;;;;;;;;;;;;;3591890;40;728;-55
2021/07/30 07:07:34;;;;;;;;;;;;;;;;;;3592089;40;816;-55
2021/07/30 07:09:59;;;;;;;;;;;;;;;;;;3592309;40;877;-55
2021/07/30 07:12:24;;;;;;;;;;;;;;;;;;3591690;40;756;-56
2021/07/30 07:14:49;;;;;;;;;;;;;;;;;;3591846;40;817;-58
2021/07/30 07:17:15;;;;;;;;;;;;;;;;;;3591662;40;860;-57
2021/07/30 07:19:40;;;;;;;;;;;;;;;;;;3592196;40;1913;-55
2021/07/30 07:22:05;;;;;;;;;;;;;;;;;;3591448;40;1081;-54
2021/07/30 07:24:31;;;;;;;;;;;;;;;;;;3591824;40;844;-55
2021/07/30 07:26:56;;;;;;;;;;;;;;;;;;3591784;40;847;-55
2021/07/30 07:29:21;;;;;;;;;;;;;;;;;;3591941;40;859;-55
2021/07/30 07:31:46;;;;;;;;;;;;;;;;;;3591757;40;840;-56
2021/07/30 07:34:11;;;;;;;;;;;;;;;;;;3591924;40;752;-55
2021/07/30 07:36:36;;;;;;;;;;;;;;;;;;3591882;40;953;-54
2021/07/30 07:39:02;;;;;;;;;;;;;;;;;;3591743;40;1861;-55
2021/07/30 07:41:27;;;;;;;;;;;;;;;;;;3592015;40;712;-54
2021/07/30 07:43:52;;;;;;;;;;;;;;;;;;3592370;40;732;-55
2021/07/30 07:46:17;;;;;;;;;;;;;;;;;;3591813;40;803;-55
2021/07/30 07:48:43;;;;;;;;;;;;;;;;;;3592281;40;770;-55
2021/07/30 07:51:08;;;;;;;;;;;;;;;;;;3591895;40;837;-56
2021/07/30 07:53:33;;;;;;;;;;;;;;;;;;3591650;40;762;-55
2021/07/30 07:55:58;;;;;;;;;;;;;;;;;;3591871;40;862;-55
2021/07/30 07:58:23;;;;;;;;;;;;;;;;;;3591775;40;1913;-55
2021/07/30 08:00:48;;;;;;;;;;;;;;;;;;3591836;40;875;-55
2021/07/30 08:03:13;;;;;;;;;;;;;;;;;;3591865;40;724;-56
2021/07/30 08:05:38;;;;;;;;;;;;;;;;;;3591835;40;814;-55
2021/07/30 08:08:03;;;;;;;;;;;;;;;;;;3591542;40;598;-55
2021/07/30 08:10:29;;;;;;;;;;;;;;;;;;3591343;40;727;-56
2021/07/30 08:12:54;;;;;;;;;;;;;;;;;;3591786;40;850;-55
2021/07/30 08:15:19;;;;;;;;;;;;;;;;;;3591626;40;864;-54
2021/07/30 08:17:44;;;;;;;;;;;;;;;;;;3590649;40;911;-55
2021/07/30 08:20:09;;;;;;;;;;;;;;;;;;3591394;40;1860;-55
2021/07/30 08:22:34;;;;;;;;;;;;;;;;;;3591489;40;1085;-55
2021/07/30 08:25:00;;;;;;;;;;;;;;;;;;3591855;40;770;-55
2021/07/30 08:27:25;;;;;;;;;;;;;;;;;;3591533;40;745;-54
2021/07/30 08:29:50;;;;;;;;;;;;;;;;;;3591867;40;732;-55
2021/07/30 08:32:17;;;;;;;;;;;;;;;;;;3591800;40;926;-55
2021/07/30 08:34:42;;;;;;;;;;;;;;;;;;3591382;40;779;-55
2021/07/30 08:37:07;;;;;;;;;;;;;;;;;;3591592;40;852;-55
2021/07/30 08:39:32;;;;;;;;;;;;;;;;;;3591928;40;1911;-54
2021/07/30 08:41:57;;;;;;;;;;;;;;;;;;3591418;40;738;-55
2021/07/30 08:44:22;;;;;;;;;;;;;;;;;;3591523;40;833;-55
2021/07/30 08:46:47;;;;;;;;;;;;;;;;;;3591566;40;896;-55
2021/07/30 08:49:12;;;;;;;;;;;;;;;;;;3591300;40;859;-55
2021/07/30 08:51:38;;;;;;;;;;;;;;;;;;3591867;40;721;-55
2021/07/30 08:54:03;;;;;;;;;;;;;;;;;;3591240;40;765;-55
2021/07/30 08:56:28;;;;;;;;;;;;;;;;;;3591969;40;884;-55
2021/07/30 08:58:53;;;;;;;;;;;;;;;;;;3591698;40;1944;-55
2021/07/30 09:01:18;;;;;;;;;;;;;;;;;;3591275;40;852;-55
2021/07/30 09:03:43;;;;;;;;;;;;;;;;;;3590944;40;861;-55
2021/07/30 09:06:08;;;;;;;;;;;;;;;;;;3591617;40;825;-55
2021/07/30 09:08:33;;;;;;;;;;;;;;;;;;3591173;40;867;-55
2021/07/30 09:10:58;;;;;;;;;;;;;;;;;;3591158;40;717;-56
2021/07/30 09:13:24;;;;;;;;;;;;;;;;;;3590889;40;773;-55
2021/07/30 09:15:49;;;;;;;;;;;;;;;;;;3591483;40;802;-55
2021/07/30 09:18:14;;;;;;;;;;;;;;;;;;3590739;40;1921;-55
2021/07/30 09:20:39;;;;;;;;;;;;;;;;;;3591070;40;837;-55
2021/07/30 09:23:04;;;;;;;;;;;;;;;;;;3590755;40;1067;-55
2021/07/30 09:25:29;;;;;;;;;;;;;;;;;;3591048;40;889;-55
2021/07/30 09:27:54;;;;;;;;;;;;;;;;;;3591678;40;864;-55
2021/07/30 09:30:20;;;;;;;;;;;;;;;;;;3592751;40;825;-55
2021/07/30 09:32:45;;;;;;;;;;;;;;;;;;3592428;40;768;-55
2021/07/30 09:35:10;;;;;;;;;;;;;;;;;;3592701;40;825;-55
2021/07/30 09:37:35;;;;;;;;;;;;;;;;;;3592491;40;829;-55
2021/07/30 09:40:02;;;;;;;;;;;;;;;;;;3592696;40;1859;-55
2021/07/30 09:42:27;;;;;;;;;;;;;;;;;;3592663;40;732;-55
2021/07/30 09:44:52;;;;;;;;;;;;;;;;;;3592747;40;797;-54
2021/07/30 09:47:19;;;;;;;;;;;;;;;;;;3592484;40;745;-55
2021/07/30 09:49:44;;;;;;;;;;;;;;;;;;3593013;40;771;-55
2021/07/30 09:52:10;;;;;;;;;;;;;;;;;;3592601;40;961;-54
2021/07/30 09:54:35;;;;;;;;;;;;;;;;;;3592453;40;863;-55
2021/07/30 09:57:00;;;;;;;;;;;;;;;;;;3592100;40;841;-55
2021/07/30 09:59:26;;;;;;;;;;;;;;;;;;3592349;40;1920;-55
2021/07/30 10:01:51;;;;;;;;;;;;;;;;;;3592173;40;779;-55
2021/07/30 10:04:16;;;;;;;;;;;;;;;;;;3592313;40;874;-55
2021/07/30 10:06:41;;;;;;;;;;;;;;;;;;3592777;40;767;-54
2021/07/30 10:09:06;;;;;;;;;;;;;;;;;;3592521;40;902;-55
2021/07/30 10:11:37;;;;;;;;;;;;;;;;;;3592325;40;717;-55
2021/07/30 10:14:03;;;;;;;;;;;;;;;;;;3592505;40;816;-55
2021/07/30 10:16:28;;;;;;;;;;;;;;;;;;3592199;40;785;-55
2021/07/30 10:18:53;;;;;;;;;;;;;;;;;;3592413;40;1916;-55
2021/07/30 10:21:18;;;;;;;;;;;;;;;;;;3592457;40;693;-55
2021/07/30 10:23:43;;;;;;;;;;;;;;;;;;3592559;40;1121;-55
2021/07/30 10:26:08;;;;;;;;;;;;;;;;;;3592300;40;747;-55
2021/07/30 10:28:34;;;;;;;;;;;;;;;;;;3592058;40;738;-55
2021/07/30 10:30:59;;;;;;;;;;;;;;;;;;3592572;40;1253;-54
2021/07/30 10:33:24;;;;;;;;;;;;;;;;;;3592195;40;920;-55
2021/07/30 10:35:49;;;;;;;;;;;;;;;;;;3591914;40;812;-55
2021/07/30 10:38:15;;;;;;;;;;;;;;;;;;3592457;40;1867;-55
2021/07/30 10:40:40;;;;;;;;;;;;;;;;;;3591629;40;715;-55
2021/07/30 10:43:05;;;;;;;;;;;;;;;;;;3592334;40;850;-55
2021/07/30 10:45:30;;;;;;;;;;;;;;;;;;3592065;40;865;-55
2021/07/30 10:47:55;;;;;;;;;;;;;;;;;;3592669;40;927;-55
2021/07/30 10:50:20;;;;;;;;;;;;;;;;;;3592305;40;759;-55
2021/07/30 10:52:45;;;;;;;;;;;;;;;;;;3592252;40;773;-55
2021/07/30 10:55:10;;;;;;;;;;;;;;;;;;3593393;40;822;-60
2021/07/30 10:57:36;;;;;;;;;;;;;;;;;;3593853;40;914;-61
2021/07/30 11:00:03;;;;;;;;;;;;;;;;;;3584150;40;1878;-60
2021/07/30 11:02:29;;;;;;;;;;;;;;;;;;3592477;40;893;-58
2021/07/30 11:04:54;;;;;;;;;;;;;;;;;;3592313;40;749;-57
2021/07/30 11:07:19;;;;;;;;;;;;;;;;;;3592310;40;828;-61
2021/07/30 11:09:44;;;;;;;;;;;;;;;;;;3592185;40;861;-57
2021/07/30 11:12:09;;;;;;;;;;;;;;;;;;3583137;40;899;-59
2021/07/30 11:14:35;;;;;;;;;;;;;;;;;;3592537;40;829;-59
2021/07/30 11:17:00;;;;;;;;;;;;;;;;;;3591609;40;825;-58
2021/07/30 11:19:26;;;;;;;;;;;;;;;;;;3592049;40;1920;-59
2021/07/30 11:21:51;;;;;;;;;;;;;;;;;;3592825;40;1115;-57
2021/07/30 11:24:16;;;;;;;;;;;;;;;;;;3592903;40;833;-59
2021/07/30 11:26:41;;;;;;;;;;;;;;;;;;3592083;40;840;-58
2021/07/30 11:29:06;;;;;;;;;;;;;;;;;;3591880;40;709;-56
2021/07/30 11:31:31;;;;;;;;;;;;;;;;;;3591917;40;823;-57
2021/07/30 11:33:56;;;;;;;;;;;;;;;;;;3591535;40;952;-57
2021/07/30 11:36:21;;;;;;;;;;;;;;;;;;3591746;40;829;-57
2021/07/30 11:38:47;;;;;;;;;;;;;;;;;;3591829;40;1866;-57
2021/07/30 11:41:14;;;;;;;;;;;;;;;;;;3591975;40;950;-58
2021/07/30 11:43:39;;;;;;;;;;;;;;;;;;3592088;40;787;-58
2021/07/30 11:46:04;;;;;;;;;;;;;;;;;;3591950;40;833;-57
2021/07/30 11:48:29;;;;;;;;;;;;;;;;;;3592207;40;832;-58
2021/07/30 11:50:55;;;;;;;;;;;;;;;;;;3592060;40;832;-55
2021/07/30 11:53:20;;;;;;;;;;;;;;;;;;3591917;40;832;-58
2021/07/30 11:55:45;;;;;;;;;;;;;;;;;;3592191;40;812;-58
2021/07/30 11:58:10;;;;;;;;;;;;;;;;;;3591828;40;1925;-58
2021/07/30 12:00:35;;;;;;;;;;;;;;;;;;3591716;40;777;-58
2021/07/30 12:03:01;;;;;;;;;;;;;;;;;;3591937;40;694;-57
2021/07/30 12:05:26;;;;;;;;;;;;;;;;;;3591760;40;740;-56
2021/07/30 12:07:51;;;;;;;;;;;;;;;;;;3591960;40;755;-58
2021/07/30 12:10:18;;;;;;;;;;;;;;;;;;3592488;40;897;-58
2021/07/30 12:12:43;;;;;;;;;;;;;;;;;;3591820;40;903;-58
2021/07/30 12:15:09;;;;;;;;;;;;;;;;;;3592288;40;743;-56
2021/07/30 12:17:34;;;;;;;;;;;;;;;;;;3591856;40;860;-58
2021/07/30 12:19:59;;;;;;;;;;;;;;;;;;3591853;40;1866;-56
2021/07/30 12:22:24;;;;;;;;;;;;;;;;;;3592007;40;1200;-57
2021/07/30 12:24:49;;;;;;;;;;;;;;;;;;3591719;40;698;-58
2021/07/30 12:27:14;;;;;;;;;;;;;;;;;;3591314;40;936;-58
2021/07/30 12:29:39;;;;;;;;;;;;;;;;;;3591455;40;708;-56
2021/07/30 12:32:05;;;;;;;;;;;;;;;;;;3591829;40;925;-57
2021/07/30 12:34:30;;;;;;;;;;;;;;;;;;3591596;40;781;-57
2021/07/30 12:36:55;;;;;;;;;;;;;;;;;;3592062;40;829;-57
2021/07/30 12:39:21;;;;;;;;;;;;;;;;;;3591717;40;1920;-58
2021/07/30 12:41:47;;;;;;;;;;;;;;;;;;3591906;40;826;-57
2021/07/30 12:44:12;;;;;;;;;;;;;;;;;;3591495;40;872;-58
2021/07/30 12:46:37;;;;;;;;;;;;;;;;;;3591605;40;825;-57
2021/07/30 12:49:02;;;;;;;;;;;;;;;;;;3591552;40;874;-57
2021/07/30 12:51:27;;;;;;;;;;;;;;;;;;3591623;40;764;-57
2021/07/30 12:53:53;;;;;;;;;;;;;;;;;;3591519;40;713;-56
2021/07/30 12:56:18;;;;;;;;;;;;;;;;;;3591423;40;808;-57
2021/07/30 12:58:43;;;;;;;;;;;;;;;;;;3592271;40;1866;-57
2021/07/30 13:01:09;;;;;;;;;;;;;;;;;;3592070;40;781;-56
2021/07/30 13:03:34;;;;;;;;;;;;;;;;;;3591216;40;943;-56
2021/07/30 13:06:04;;;;;;;;;;;;;;;;;;3591241;40;849;-57
2021/07/30 13:08:29;;;;;;;;;;;;;;;;;;3591289;40;784;-55
2021/07/30 13:10:54;;;;;;;;;;;;;;;;;;3591366;40;836;-56
2021/07/30 13:13:22;;;;;;;;;;;;;;;;;;3591023;40;844;-57
2021/07/30 13:15:48;;;;;;;;;;;;;;;;;;3591370;40;939;-56
2021/07/30 13:18:13;;;;;;;;;;;;;;;;;;3591166;40;1918;-58
2021/07/30 13:20:38;;;;;;;;;;;;;;;;;;3591633;40;704;-58
2021/07/30 13:23:03;;;;;;;;;;;;;;;;;;3591351;40;1298;-55
2021/07/30 13:25:28;;;;;;;;;;;;;;;;;;3590948;40;880;-56
2021/07/30 13:27:53;;;;;;;;;;;;;;;;;;3591359;40;788;-58
2021/07/30 13:30:18;;;;;;;;;;;;;;;;;;3591440;40;899;-57
2021/07/30 13:32:44;;;;;;;;;;;;;;;;;;3591481;40;891;-57
2021/07/30 13:35:09;;;;;;;;;;;;;;;;;;3582103;40;1063;-57
2021/07/30 13:37:34;;;;;;;;;;;;;;;;;;3591415;40;720;-58
2021/07/30 13:39:59;;;;;;;;;;;;;;;;;;3590992;40;1859;-56
2021/07/30 13:42:24;;;;;;;;;;;;;;;;;;3590867;40;724;-57
2021/07/30 13:44:49;;;;;;;;;;;;;;;;;;3590971;40;890;-58
2021/07/30 13:47:14;;;;;;;;;;;;;;;;;;3591318;40;886;-56
2021/07/30 13:49:40;;;;;;;;;;;;;;;;;;3590974;40;919;-57
2021/07/30 13:52:05;;;;;;;;;;;;;;;;;;3591345;40;791;-57
2021/07/30 13:54:30;;;;;;;;;;;;;;;;;;3590774;40;861;-58
2021/07/30 13:56:55;;;;;;;;;;;;;;;;;;3590952;40;829;-57
2021/07/30 13:59:20;;;;;;;;;;;;;;;;;;3591187;40;1914;-57
2021/07/30 14:01:45;;;;;;;;;;;;;;;;;;3591453;40;839;-58
2021/07/30 14:04:11;;;;;;;;;;;;;;;;;;3591716;40;712;-57
2021/07/30 14:06:36;;;;;;;;;;;;;;;;;;3592118;40;843;-59
2021/07/30 14:09:01;;;;;;;;;;;;;;;;;;3591960;40;865;-57
2021/07/30 14:11:26;;;;;;;;;;;;;;;;;;3591483;40;741;-59
2021/07/30 14:13:51;;;;;;;;;;;;;;;;;;3591323;40;733;-59
2021/07/30 14:16:16;;;;;;;;;;;;;;;;;;3592761;40;717;-56
2021/07/30 14:18:41;;;;;;;;;;;;;;;;;;3593001;40;1922;-57
2021/07/30 14:21:06;;;;;;;;;;;;;;;;;;3592842;40;740;-58
2021/07/30 14:23:32;;;;;;;;;;;;;;;;;;3593308;40;1109;-56
2021/07/30 14:25:57;;;;;;;;;;;;;;;;;;3592878;40;825;-56
2021/07/30 14:28:22;;;;;;;;;;;;;;;;;;3593777;40;840;-57
2021/07/30 14:30:47;;;;;;;;;;;;;;;;;;3592789;40;756;-58
2021/07/30 14:33:12;;;;;;;;;;;;;;;;;;3592908;40;792;-60
2021/07/30 14:35:37;;;;;;;;;;;;;;;;;;3592726;40;817;-56
2021/07/30 14:38:03;;;;;;;;;;;;;;;;;;3592309;40;752;-55
2021/07/30 14:40:28;;;;;;;;;;;;;;;;;;3592281;40;1925;-56
2021/07/30 14:42:57;;;;;;;;;;;;;;;;;;3592359;40;830;-57
2021/07/30 14:45:22;;;;;;;;;;;;;;;;;;3592235;40;903;-57
2021/07/30 14:47:47;;;;;;;;;;;;;;;;;;3592282;40;841;-57
2021/07/30 14:50:12;;;;;;;;;;;;;;;;;;3592413;40;882;-58
2021/07/30 14:52:38;;;;;;;;;;;;;;;;;;3592426;40;755;-58
2021/07/30 14:55:03;;;;;;;;;;;;;;;;;;3592911;40;830;-58
2021/07/30 14:57:29;;;;;;;;;;;;;;;;;;3592009;40;752;-58
2021/07/30 14:59:54;;;;;;;;;;;;;;;;;;3592102;40;1870;-58
2021/07/30 15:02:19;;;;;;;;;;;;;;;;;;3591944;40;756;-55
2021/07/30 15:04:44;;;;;;;;;;;;;;;;;;3592540;40;798;-57
2021/07/30 15:07:11;;;;;;;;;;;;;;;;;;3592166;40;875;-55
2021/07/30 15:09:36;;;;;;;;;;;;;;;;;;3592213;40;737;-57
2021/07/30 15:12:01;;;;;;;;;;;;;;;;;;3592239;40;686;-58
2021/07/30 15:14:26;;;;;;;;;;;;;;;;;;3592102;40;823;-57
2021/07/30 15:16:51;;;;;;;;;;;;;;;;;;3591895;40;796;-58
2021/07/30 15:19:17;;;;;;;;;;;;;;;;;;3592028;40;1916;-58
2021/07/30 15:21:42;;;;;;;;;;;;;;;;;;3592067;40;1137;-58
2021/07/30 15:24:07;;;;;;;;;;;;;;;;;;3592566;40;756;-58
2021/07/30 15:26:32;;;;;;;;;;;;;;;;;;3591459;40;728;-58
2021/07/30 15:29:00;;;;;;;;;;;;;;;;;;3591906;40;816;-57
2021/07/30 15:31:25;;;;;;;;;;;;;;;;;;3592232;40;861;-57
2021/07/30 15:33:50;;;;;;;;;;;;;;;;;;3591971;40;721;-58
2021/07/30 15:36:18;;;;;;;;;;;;;;;;;;3582821;40;1255;-57
2021/07/30 15:38:43;;;;;;;;;;;;;;;;;;3592369;40;1924;-58
2021/07/30 15:41:08;;;;;;;;;;;;;;;;;;3591755;40;760;-55
2021/07/30 15:43:34;;;;;;;;;;;;;;;;;;3592307;40;836;-56
2021/07/30 15:45:59;;;;;;;;;;;;;;;;;;3591605;40;824;-58
2021/07/30 15:48:24;;;;;;;;;;;;;;;;;;3592247;40;841;-56
2021/07/30 15:50:49;;;;;;;;;;;;;;;;;;3591890;40;1407;-58
2021/07/30 15:53:15;;;;;;;;;;;;;;;;;;3592050;40;837;-59
2021/07/30 15:55:40;;;;;;;;;;;;;;;;;;3591939;40;745;-57
2021/07/30 15:58:05;;;;;;;;;;;;;;;;;;3591972;40;870;-57
2021/07/30 16:00:32;;;;;;;;;;;;;;;;;;3582643;40;1909;-58
2021/07/30 16:02:57;;;;;;;;;;;;;;;;;;3592361;40;776;-57
2021/07/30 16:05:22;;;;;;;;;;;;;;;;;;3591830;40;722;-56
2021/07/30 16:07:47;;;;;;;;;;;;;;;;;;3591915;40;784;-58
2021/07/30 16:10:13;;;;;;;;;;;;;;;;;;3591865;40;732;-58
2021/07/30 16:12:38;;;;;;;;;;;;;;;;;;3591874;40;875;-58
2021/07/30 16:15:03;;;;;;;;;;;;;;;;;;3591917;40;728;-57
2021/07/30 16:17:29;;;;;;;;;;;;;;;;;;3592340;40;871;-58
2021/07/30 16:19:54;;;;;;;;;;;;;;;;;;3591684;40;1875;-57
2021/07/30 16:22:19;;;;;;;;;;;;;;;;;;3592086;40;1242;-57
2021/07/30 16:24:45;;;;;;;;;;;;;;;;;;3591443;40;837;-55
2021/07/30 16:27:10;;;;;;;;;;;;;;;;;;3591701;40;888;-58
2021/07/30 16:29:35;;;;;;;;;;;;;;;;;;3591380;40;857;-57
2021/07/30 16:32:00;;;;;;;;;;;;;;;;;;3591670;40;865;-55
2021/07/30 16:34:25;;;;;;;;;;;;;;;;;;3591511;40;704;-58
2021/07/30 16:36:50;;;;;;;;;;;;;;;;;;3591194;40;900;-58
2021/07/30 16:39:15;;;;;;;;;;;;;;;;;;3591134;40;1929;-58
2021/07/30 16:41:41;;;;;;;;;;;;;;;;;;3591690;40;994;-57
2021/07/30 16:44:06;;;;;;;;;;;;;;;;;;3591604;40;748;-58
2021/07/30 16:46:31;;;;;;;;;;;;;;;;;;3591702;40;829;-57
2021/07/30 16:48:56;;;;;;;;;;;;;;;;;;3591520;40;821;-59
2021/07/30 16:51:21;;;;;;;;;;;;;;;;;;3591512;40;838;-57
2021/07/30 16:53:47;;;;;;;;;;;;;;;;;;3582608;40;718;-58
2021/07/30 16:56:12;;;;;;;;;;;;;;;;;;3591591;40;753;-58
2021/07/30 16:58:38;;;;;;;;;;;;;;;;;;3591504;40;1928;-55
2021/07/30 17:01:03;;;;;;;;;;;;;;;;;;3591379;40;1384;-58
2021/07/30 17:03:28;;;;;;;;;;;;;;;;;;3591604;40;805;-57